Time;durP1;ratioP1;P1;durP2;ratioP2;P2;SDS_P1;SDS_P2;PMS_P1;PMS_P2;Temp;Humidity;BMP_temperature;BMP_pressure;BME280_temperature;BME280_humidity;BME280_pressure;Samples;Min_cycle;Max_cycle;Signal;HPM_P1;HPM_P2
2021/05/27 00:01:51;;;;;;;12.57;7.65;;;19.00;72.80;;;;;;5047337;28;20043;-72
2021/05/27 00:04:17;;;;;;;11.10;7.53;;;19.00;72.80;;;;;;5053397;28;20048;-72
2021/05/27 00:06:42;;;;;;;12.50;7.93;;;19.00;72.80;;;;;;5053700;28;20025;-72
2021/05/27 00:09:08;;;;;;;14.20;8.63;;;18.90;72.90;;;;;;5053511;28;20534;-72
2021/05/27 00:11:34;;;;;;;11.98;7.97;;;18.90;73.10;;;;;;5053621;28;20044;-72
2021/05/27 00:13:59;;;;;;;13.15;8.20;;;18.80;73.20;;;;;;5053566;28;20036;-72
2021/05/27 00:16:25;;;;;;;13.85;8.57;;;18.80;73.40;;;;;;5053425;28;20022;-72
2021/05/27 00:18:53;;;;;;;13.05;8.90;;;18.70;73.50;;;;;;5053225;28;20103;-72
2021/05/27 00:21:20;;;;;;;11.98;7.50;;;18.70;73.80;;;;;;5053001;28;20029;-72
2021/05/27 00:23:46;;;;;;;16.65;10.23;;;18.70;73.80;;;;;;5053601;28;20033;-72
2021/05/27 00:26:12;;;;;;;11.82;8.10;;;18.60;73.80;;;;;;5053288;28;20104;-72
2021/05/27 00:28:38;;;;;;;11.68;8.50;;;18.60;73.80;;;;;;5052966;28;20171;-72
2021/05/27 00:31:04;;;;;;;12.98;8.57;;;18.50;73.90;;;;;;5053243;28;20120;-78
2021/05/27 00:33:30;;;;;;;9.05;6.80;;;18.50;74.00;;;;;;5053654;28;20033;-72
2021/05/27 00:35:56;;;;;;;10.77;7.60;;;18.50;74.00;;;;;;5053694;28;20028;-72
2021/05/27 00:38:22;;;;;;;9.57;6.93;;;18.50;74.10;;;;;;5053117;28;20021;-72
2021/05/27 00:40:47;;;;;;;12.05;9.55;;;18.50;74.10;;;;;;5053099;28;20464;-72
2021/05/27 00:43:14;;;;;;;16.70;11.52;;;18.40;74.30;;;;;;5053190;28;20410;-72
2021/05/27 00:45:40;;;;;;;12.27;8.38;;;18.40;74.50;;;;;;5052990;28;20039;-72
2021/05/27 00:48:06;;;;;;;10.77;8.95;;;18.30;74.50;;;;;;5053184;28;20104;-72
2021/05/27 00:50:31;;;;;;;16.10;12.82;;;18.30;74.60;;;;;;5053644;28;20033;-71
2021/05/27 00:52:57;;;;;;;14.10;9.70;;;18.30;74.70;;;;;;5053066;28;20033;-72
2021/05/27 00:55:25;;;;;;;8.88;6.95;;;18.30;74.80;;;;;;5053113;28;20033;-72
2021/05/27 00:57:52;;;;;;;11.57;6.90;;;18.20;74.80;;;;;;5053141;28;20047;-72
2021/05/27 01:00:22;;;;;;;7.93;6.30;;;18.30;74.90;;;;;;5053101;28;20030;-72
2021/05/27 01:02:47;;;;;;;8.02;6.70;;;18.20;74.90;;;;;;5052368;28;20025;-72
2021/05/27 01:05:15;;;;;;;9.85;6.82;;;18.20;74.90;;;;;;5053069;28;20040;-72
2021/05/27 01:07:41;;;;;;;8.32;6.55;;;18.20;74.90;;;;;;5052778;28;20475;-72
2021/05/27 01:10:09;;;;;;;11.93;8.02;;;18.20;75.00;;;;;;5052667;28;20394;-73
2021/05/27 01:12:36;;;;;;;11.02;7.32;;;18.20;75.20;;;;;;5053189;28;20132;-72
2021/05/27 01:17:46;;;;;;;10.07;7.15;;;18.10;75.20;;;;;;5053244;28;20036;-72
2021/05/27 01:20:13;;;;;;;10.82;8.18;;;18.10;75.20;;;;;;5052944;28;20021;-72
2021/05/27 01:22:39;;;;;;;8.68;6.18;;;18.20;75.30;;;;;;5052666;28;20025;-72
2021/05/27 01:25:07;;;;;;;7.88;5.88;;;18.20;75.40;;;;;;5052567;28;20025;-72
2021/05/27 01:27:33;;;;;;;7.43;6.18;;;18.20;75.30;;;;;;5052890;28;20039;-72
2021/05/27 01:29:59;;;;;;;10.52;6.22;;;18.20;75.30;;;;;;5052829;28;20437;-71
2021/05/27 01:32:25;;;;;;;7.93;6.68;;;18.20;75.30;;;;;;5052693;28;20037;-72
2021/05/27 01:34:51;;;;;;;8.27;6.00;;;18.20;75.20;;;;;;5055460;28;20025;-72
2021/05/27 01:37:16;;;;;;;8.00;6.25;;;18.30;75.30;;;;;;5056473;28;20386;-72
2021/05/27 01:39:46;;;;;;;7.18;5.80;;;18.30;75.20;;;;;;5056595;28;20052;-72
2021/05/27 01:42:12;;;;;;;7.28;5.40;;;18.30;75.20;;;;;;5055962;28;20127;-72
2021/05/27 01:44:39;;;;;;;6.47;5.68;;;18.30;75.10;;;;;;5056198;28;20441;-72
2021/05/27 01:47:05;;;;;;;10.60;6.63;;;18.40;75.10;;;;;;5056782;28;20048;-72
2021/05/27 01:49:30;;;;;;;10.88;6.35;;;18.40;75.00;;;;;;5056209;28;20455;-72
2021/05/27 01:51:56;;;;;;;7.70;6.32;;;18.40;75.00;;;;;;5056166;28;20410;-72
2021/05/27 01:54:22;;;;;;;12.60;6.75;;;18.40;74.90;;;;;;5055836;28;20475;-72
2021/05/27 01:56:48;;;;;;;10.38;7.22;;;18.40;74.90;;;;;;5056457;28;20025;-72
2021/05/27 01:59:14;;;;;;;7.07;6.05;;;18.50;74.90;;;;;;5056082;28;20082;-72
2021/05/27 02:01:39;;;;;;;9.75;6.90;;;18.50;74.80;;;;;;5055972;28;20467;-72
2021/05/27 02:04:05;;;;;;;8.20;6.10;;;18.50;74.80;;;;;;5056077;28;20025;-72
2021/05/27 02:06:32;;;;;;;7.13;5.97;;;18.40;74.70;;;;;;5056156;28;20463;-72
2021/05/27 02:09:10;;;;;;;8.43;6.57;;;18.40;74.70;;;;;;5055661;28;20039;-72
2021/05/27 02:11:47;;;;;;;6.15;5.50;;;18.50;74.80;;;;;;5055639;28;20390;-72
2021/05/27 02:14:15;;;;;;;8.63;5.88;;;18.50;74.80;;;;;;5055632;28;20033;-72
2021/05/27 02:16:42;;;;;;;7.13;5.80;;;18.60;74.70;;;;;;5055735;28;20021;-72
2021/05/27 02:19:09;;;;;;;7.95;6.15;;;18.60;74.70;;;;;;5055720;28;20033;-72
2021/05/27 02:21:37;;;;;;;7.97;5.85;;;18.70;74.60;;;;;;5054095;28;20540;-72
2021/05/27 02:24:04;;;;;;;8.68;5.95;;;18.70;74.50;;;;;;5055651;28;20566;-71
2021/05/27 02:26:30;;;;;;;7.65;5.97;;;18.80;74.50;;;;;;5055217;28;20490;-71
2021/05/27 02:28:59;;;;;;;8.20;6.18;;;18.90;74.40;;;;;;5056013;28;20036;-71
2021/05/27 02:31:24;;;;;;;7.32;6.20;;;18.90;74.10;;;;;;5055347;28;20028;-72
2021/05/27 02:33:51;;;;;;;8.85;6.32;;;19.00;73.90;;;;;;5054784;28;20052;-71
2021/05/27 02:36:17;;;;;;;10.45;7.38;;;19.10;73.70;;;;;;5055353;28;20036;-72
2021/05/27 02:38:43;;;;;;;11.10;6.50;;;19.10;74.10;;;;;;5055379;28;20036;-72
2021/05/27 02:41:09;;;;;;;9.40;5.95;;;19.20;73.40;;;;;;5055149;28;20057;-72
2021/05/27 02:43:35;;;;;;;8.20;6.65;;;19.30;73.20;;;;;;5054861;28;20036;-72
2021/05/27 02:46:01;;;;;;;9.73;6.57;;;19.30;73.00;;;;;;5054975;28;20025;-72
2021/05/27 02:48:28;;;;;;;9.73;6.93;;;19.40;72.80;;;;;;5055151;28;20029;-72
2021/05/27 02:50:55;;;;;;;8.13;6.15;;;19.40;73.30;;;;;;5055225;28;20033;-72
2021/05/27 02:53:20;;;;;;;11.15;6.32;;;19.40;72.50;;;;;;5053716;28;20463;-72
2021/05/27 02:55:46;;;;;;;7.13;6.13;;;19.50;72.40;;;;;;5055115;28;20044;-72
2021/05/27 02:58:12;;;;;;;7.93;6.05;;;19.50;72.30;;;;;;5055911;28;20147;-72
2021/05/27 03:00:38;;;;;;;11.18;5.85;;;19.50;72.20;;;;;;5054647;28;20067;-72
2021/05/27 03:03:09;;;;;;;7.80;6.10;;;19.60;72.10;;;;;;5054651;28;20108;-72
2021/05/27 03:05:35;;;;;;;6.75;5.68;;;19.60;72.00;;;;;;5054777;28;20021;-72
2021/05/27 03:08:00;;;;;;;12.27;6.53;;;19.60;72.00;;;;;;5054852;28;20098;-72
2021/05/27 03:10:26;;;;;;;11.23;6.53;;;19.60;71.90;;;;;;5054597;28;20052;-72
2021/05/27 03:12:52;;;;;;;7.78;5.72;;;19.60;71.90;;;;;;5054754;28;20394;-72
2021/05/27 03:15:18;;;;;;;8.20;6.00;;;19.60;71.80;;;;;;5054602;28;20040;-72
2021/05/27 03:17:44;;;;;;;8.32;6.50;;;19.60;71.80;;;;;;5054471;28;20394;-72
2021/05/27 03:20:11;;;;;;;9.45;6.78;;;19.70;71.80;;;;;;5054570;28;20029;-71
2021/05/27 03:22:37;;;;;;;6.28;5.68;;;19.70;71.70;;;;;;5054546;28;20024;-71
2021/05/27 03:25:04;;;;;;;8.52;6.18;;;19.70;71.70;;;;;;5054337;28;20049;-71
2021/05/27 03:27:30;;;;;;;8.43;6.05;;;19.80;71.70;;;;;;5054045;28;20078;-71
2021/05/27 03:29:56;;;;;;;6.38;5.75;;;19.80;71.70;;;;;;5053179;28;20033;-71
2021/05/27 03:32:21;;;;;;;9.15;5.75;;;19.80;71.70;;;;;;5069561;28;20033;-71
2021/05/27 03:34:47;;;;;;;13.48;7.50;;;19.80;71.70;;;;;;5054138;28;20383;-71
2021/05/27 03:37:13;;;;;;;8.30;6.40;;;19.80;71.70;;;;;;5054277;28;20032;-71
2021/05/27 03:39:39;;;;;;;10.38;7.20;;;19.80;71.80;;;;;;5054012;28;20036;-71
2021/05/27 03:42:05;;;;;;;10.43;7.30;;;19.80;71.90;;;;;;5054547;28;20048;-71
2021/05/27 03:44:30;;;;;;;9.75;6.70;;;19.90;72.00;;;;;;5054017;28;20108;-71
2021/05/27 03:46:56;;;;;;;10.25;6.90;;;19.90;71.90;;;;;;5053797;28;20166;-73
2021/05/27 03:49:22;;;;;;;14.85;7.22;;;20.00;71.90;;;;;;5053987;28;20017;-71
2021/05/27 03:51:48;;;;;;;14.00;7.93;;;20.00;72.00;;;;;;5053976;28;20395;-73
2021/05/27 03:54:13;;;;;;;10.00;7.22;;;20.10;72.00;;;;;;5053591;28;20037;-71
2021/05/27 03:56:39;;;;;;;7.85;6.88;;;20.10;72.00;;;;;;5053201;28;20032;-71
2021/05/27 04:01:50;;;;;;;11.45;8.00;;;20.20;71.80;;;;;;5054105;28;20044;-72
2021/05/27 04:07:14;;;;;;;13.70;8.73;;;20.30;71.40;;;;;;5053487;28;20036;-73
2021/05/27 04:09:40;;;;;;;7.53;6.72;;;20.30;71.30;;;;;;5053451;28;20468;-72
2021/05/27 04:17:37;;;;;;;14.48;7.80;;;20.40;70.90;;;;;;5053488;28;20120;-73
2021/05/27 04:20:05;;;;;;;11.23;7.75;;;20.50;70.90;;;;;;5053434;28;20057;-72
2021/05/27 04:22:31;;;;;;;15.10;7.95;;;20.50;70.80;;;;;;5053376;28;20036;-71
2021/05/27 04:24:57;;;;;;;19.65;8.50;;;20.60;70.90;;;;;;5053052;28;20040;-72
2021/05/27 04:27:23;;;;;;;16.52;8.10;;;20.70;71.00;;;;;;5053256;28;20029;-72
2021/05/27 04:29:52;;;;;;;11.07;6.78;;;20.80;70.80;;;;;;5047331;28;20026;-71
2021/05/27 04:35:02;;;;;;;13.95;6.90;;;21.00;70.30;;;;;;5044631;28;20478;-72
2021/05/27 04:37:27;;;;;;;11.20;6.93;;;21.00;70.10;;;;;;5042422;28;20024;-72
2021/05/27 04:39:53;;;;;;;10.77;6.03;;;21.10;69.90;;;;;;5043641;28;20034;-73
2021/05/27 04:42:18;;;;;;;9.75;6.35;;;21.20;69.60;;;;;;5041836;28;20025;-72
2021/05/27 04:44:44;;;;;;;12.57;6.10;;;21.20;69.30;;;;;;5041779;28;20032;-72
2021/05/27 04:47:10;;;;;;;14.00;8.38;;;21.30;69.30;;;;;;5040276;28;20032;-74
2021/05/27 04:49:35;;;;;;;19.50;6.88;;;21.40;69.20;;;;;;5033241;28;20542;-72
2021/05/27 04:52:01;;;;;;;23.95;6.85;;;21.40;68.70;;;;;;5032972;28;20451;-73
2021/05/27 04:54:27;;;;;;;8.93;5.45;;;21.50;68.30;;;;;;5032837;28;20030;-72
2021/05/27 04:56:52;;;;;;;10.55;5.53;;;21.60;67.90;;;;;;5033206;28;20040;-72
2021/05/27 04:59:18;;;;;;;21.33;5.97;;;21.60;67.50;;;;;;5033356;28;20028;-72
2021/05/27 05:01:44;;;;;;;15.15;6.07;;;21.70;67.20;;;;;;5032688;28;20102;-71
2021/05/27 05:04:09;;;;;;;13.13;7.20;;;21.80;67.00;;;;;;5032978;28;20029;-73
2021/05/27 05:06:35;;;;;;;14.27;7.63;;;21.80;66.70;;;;;;5032814;28;20395;-72
2021/05/27 05:09:02;;;;;;;13.05;8.13;;;21.80;66.60;;;;;;5035962;28;20079;-72
2021/05/27 05:11:28;;;;;;;9.82;7.82;;;21.90;66.60;;;;;;5036889;28;20040;-73
2021/05/27 05:13:54;;;;;;;26.20;12.55;;;21.90;66.50;;;;;;5036782;28;20033;-72
2021/05/27 05:16:20;;;;;;;27.33;14.35;;;22.00;66.20;;;;;;5036963;28;20065;-71
2021/05/27 05:18:45;;;;;;;30.13;13.98;;;22.00;66.00;;;;;;5036807;28;20033;-72
2021/05/27 05:21:11;;;;;;;26.48;17.58;;;22.00;65.80;;;;;;5037023;28;20029;-71
2021/05/27 05:23:37;;;;;;;26.63;18.75;;;22.00;65.60;;;;;;5036504;28;20021;-72
2021/05/27 05:26:02;;;;;;;29.50;16.98;;;22.10;65.50;;;;;;5036608;28;20379;-72
2021/05/27 05:28:28;;;;;;;32.30;18.60;;;22.10;65.30;;;;;;5036339;28;20025;-72
2021/05/27 05:30:54;;;;;;;38.88;20.67;;;22.20;65.20;;;;;;5035192;28;20042;-72
2021/05/27 05:33:19;;;;;;;41.28;22.50;;;22.20;65.10;;;;;;5036422;28;20052;-72
2021/05/27 05:35:45;;;;;;;40.70;23.60;;;22.30;65.00;;;;;;5036573;28;20022;-72
2021/05/27 05:38:11;;;;;;;45.80;23.55;;;22.30;64.70;;;;;;5036348;28;20463;-73
2021/05/27 05:40:37;;;;;;;35.70;22.25;;;22.40;64.60;;;;;;5036183;28;20089;-71
2021/05/27 05:43:03;;;;;;;35.05;19.17;;;22.50;64.50;;;;;;5036240;28;20391;-72
2021/05/27 05:45:29;;;;;;;34.45;16.90;;;22.50;64.30;;;;;;5036240;28;20032;-72
2021/05/27 05:47:55;;;;;;;27.40;12.02;;;22.70;64.30;;;;;;5036193;28;20477;-72
2021/05/27 05:53:07;;;;;;;20.50;8.68;;;22.90;64.30;;;;;;5036117;28;20064;-71
2021/05/27 05:55:34;;;;;;;14.35;7.50;;;23.10;65.00;;;;;;5036045;28;20079;-72
2021/05/27 05:58:00;;;;;;;12.60;7.45;;;23.10;64.30;;;;;;5044447;28;20080;-72
2021/05/27 06:00:26;;;;;;;11.85;7.38;;;23.20;64.30;;;;;;5056056;28;20033;-73
2021/05/27 06:02:52;;;;;;;18.77;7.70;;;23.30;64.50;;;;;;5055992;28;20170;-73
2021/05/27 06:05:17;;;;;;;17.92;10.40;;;23.30;64.40;;;;;;5053836;28;20470;-74
2021/05/27 06:07:43;;;;;;;70.22;30.77;;;23.40;64.20;;;;;;5055429;28;20025;-72
2021/05/27 06:10:10;;;;;;;29.75;14.68;;;23.50;62.90;;;;;;5055627;28;20467;-72
2021/05/27 06:12:36;;;;;;;29.45;14.48;;;23.50;62.90;;;;;;5054946;28;20044;-72
2021/05/27 06:15:02;;;;;;;21.65;12.23;;;23.50;62.90;;;;;;5055872;28;20033;-71
2021/05/27 06:17:28;;;;;;;53.67;25.17;;;23.60;63.10;;;;;;5055027;28;20028;-72
2021/05/27 06:19:53;;;;;;;47.72;23.67;;;23.70;62.00;;;;;;5054786;28;20029;-72
2021/05/27 06:22:19;;;;;;;49.67;23.02;;;23.70;61.30;;;;;;5055230;28;20024;-72
2021/05/27 06:24:45;;;;;;;53.78;23.88;;;23.80;61.00;;;;;;5054990;28;20463;-73
2021/05/27 06:27:11;;;;;;;40.03;20.23;;;23.80;60.50;;;;;;5055352;28;20033;-71
2021/05/27 06:29:36;;;;;;;23.83;14.18;;;23.90;60.60;;;;;;5055279;28;20480;-73
2021/05/27 06:32:03;;;;;;;29.35;15.43;;;23.90;61.10;;;;;;5053862;28;20037;-74
2021/05/27 06:34:29;;;;;;;23.80;13.93;;;24.00;61.30;;;;;;5054397;28;20033;-73
2021/05/27 06:36:55;;;;;;;27.88;14.23;;;24.20;61.70;;;;;;5070898;28;20442;-73
2021/05/27 06:39:21;;;;;;;25.30;12.77;;;24.20;61.90;;;;;;5054789;28;20183;-72
2021/05/27 06:41:46;;;;;;;23.30;14.57;;;24.30;62.00;;;;;;5055391;28;20064;-73
2021/05/27 06:44:12;;;;;;;26.67;14.55;;;24.40;61.90;;;;;;5054798;28;20037;-72
2021/05/27 06:46:39;;;;;;;32.88;16.58;;;24.50;61.80;;;;;;5053691;28;20025;-72
2021/05/27 06:49:05;;;;;;;28.13;16.60;;;24.50;61.80;;;;;;5055134;28;20100;-78
2021/05/27 06:51:31;;;;;;;27.95;19.25;;;24.60;61.60;;;;;;5054783;28;20033;-72
2021/05/27 06:53:57;;;;;;;47.13;23.25;;;24.70;61.30;;;;;;5070197;28;20043;-72
2021/05/27 06:56:23;;;;;;;34.80;17.70;;;24.70;60.60;;;;;;5054547;28;20025;-72
2021/05/27 06:58:48;;;;;;;36.53;20.10;;;24.70;60.40;;;;;;5053199;28;20029;-72
2021/05/27 07:01:14;;;;;;;34.70;18.70;;;24.70;59.90;;;;;;5055059;28;20029;-72
2021/05/27 07:03:40;;;;;;;38.42;16.52;;;24.70;60.00;;;;;;5055311;28;20426;-72
2021/05/27 07:06:06;;;;;;;33.83;18.35;;;24.80;60.70;;;;;;5054580;28;20060;-72
2021/05/27 07:08:36;;;;;;;27.50;14.27;;;24.80;60.00;;;;;;5054770;28;20033;-73
2021/05/27 07:11:02;;;;;;;23.00;13.50;;;24.90;59.40;;;;;;5054580;28;20498;-72
2021/05/27 07:13:28;;;;;;;42.75;18.42;;;24.90;59.30;;;;;;5054224;28;20057;-72
2021/05/27 07:15:54;;;;;;;29.17;13.77;;;24.90;59.20;;;;;;5054486;28;20025;-72
2021/05/27 07:18:19;;;;;;;23.70;12.13;;;24.90;59.10;;;;;;5054751;28;20040;-73
2021/05/27 07:20:45;;;;;;;11.07;7.57;;;24.90;59.20;;;;;;5054077;28;20028;-72
2021/05/27 07:23:11;;;;;;;8.43;7.60;;;25.00;59.10;;;;;;5054505;28;20052;-72
2021/05/27 07:25:37;;;;;;;15.20;8.60;;;25.10;59.30;;;;;;5054354;28;20025;-72
2021/05/27 07:28:03;;;;;;;7.13;6.03;;;25.20;59.00;;;;;;5054312;28;20025;-72
2021/05/27 07:30:29;;;;;;;6.72;5.88;;;25.30;58.80;;;;;;5054033;28;20029;-72
2021/05/27 07:32:56;;;;;;;6.70;4.35;;;25.40;58.70;;;;;;5053857;28;20025;-72
2021/05/27 07:35:25;;;;;;;7.43;4.50;;;25.50;58.30;;;;;;5053952;28;20021;-72
2021/05/27 07:37:52;;;;;;;11.23;4.53;;;25.50;57.90;;;;;;5054013;28;20036;-72
2021/05/27 07:40:18;;;;;;;5.55;3.92;;;25.50;57.70;;;;;;5053939;28;20059;-73
2021/05/27 07:42:43;;;;;;;6.32;4.00;;;25.50;57.70;;;;;;5069273;28;20394;-73
2021/05/27 07:45:09;;;;;;;4.90;4.35;;;25.50;57.30;;;;;;5054362;28;20111;-72
2021/05/27 07:47:35;;;;;;;6.82;4.13;;;25.50;57.00;;;;;;5054188;28;20031;-73
2021/05/27 07:50:04;;;;;;;6.50;5.10;;;25.50;57.10;;;;;;5053699;28;20448;-72
2021/05/27 07:52:30;;;;;;;12.70;6.75;;;25.70;57.50;;;;;;5053866;28;20094;-72
2021/05/27 07:54:56;;;;;;;19.10;9.20;;;25.70;57.80;;;;;;5053660;28;20036;-73
2021/05/27 07:57:22;;;;;;;20.85;11.73;;;25.90;58.30;;;;;;5053764;28;20029;-73
2021/05/27 07:59:48;;;;;;;6.10;3.40;;;26.00;58.40;;;;;;5052643;28;20108;-73
2021/05/27 08:02:14;;;;;;;3.83;3.30;;;26.00;56.40;;;;;;5053921;28;20033;-72
2021/05/27 08:04:43;;;;;;;6.18;3.72;;;26.10;55.80;;;;;;5053182;28;20074;-72
2021/05/27 08:07:12;;;;;;;5.40;4.00;;;26.10;55.80;;;;;;5053666;28;20033;-73
2021/05/27 08:09:38;;;;;;;6.47;4.85;;;26.20;55.30;;;;;;5053415;28;20107;-73
2021/05/27 08:12:05;;;;;;;11.50;4.40;;;26.40;55.30;;;;;;5053108;28;20479;-73
2021/05/27 08:14:31;;;;;;;5.15;3.63;;;26.50;55.10;;;;;;5053304;28;20032;-74
2021/05/27 08:16:57;;;;;;;5.32;4.03;;;26.70;54.50;;;;;;5053595;28;20033;-73
2021/05/27 08:19:23;;;;;;;6.60;4.20;;;26.80;54.50;;;;;;5053128;28;20025;-72
2021/05/27 08:21:49;;;;;;;6.10;4.30;;;26.90;54.00;;;;;;5053515;28;20429;-74
2021/05/27 08:24:15;;;;;;;6.22;3.80;;;27.20;53.80;;;;;;5068900;28;20494;-73
2021/05/27 08:26:41;;;;;;;3.60;3.30;;;27.40;53.00;;;;;;5052853;28;20064;-72
2021/05/27 08:29:06;;;;;;;4.80;4.05;;;27.60;52.80;;;;;;5053597;28;20108;-73
2021/05/27 08:31:32;;;;;;;7.65;5.40;;;27.80;52.30;;;;;;5039277;28;20112;-72
2021/05/27 08:33:58;;;;;;;18.65;6.80;;;28.10;52.60;;;;;;5033419;28;20025;-72
2021/05/27 08:36:23;;;;;;;9.10;7.22;;;28.40;53.40;;;;;;5032207;28;20156;-72
2021/05/27 08:38:49;;;;;;;16.17;7.75;;;28.90;53.70;;;;;;5033578;28;20030;-72
2021/05/27 08:41:19;;;;;;;62.60;10.00;;;29.30;54.00;;;;;;5033205;28;20057;-72
2021/05/27 08:43:47;;;;;;;8.85;6.32;;;29.80;53.20;;;;;;5032612;28;20486;-73
2021/05/27 08:46:13;;;;;;;7.13;5.43;;;30.20;53.00;;;;;;5033244;28;20040;-71
2021/05/27 08:48:44;;;;;;;9.48;6.25;;;30.60;52.40;;;;;;5031724;28;20029;-72
2021/05/27 08:51:11;;;;;;;13.07;6.68;;;31.10;51.60;;;;;;5033236;28;20041;-72
2021/05/27 08:53:38;;;;;;;9.73;6.88;;;31.60;50.60;;;;;;5033169;28;20389;-73
2021/05/27 08:56:04;;;;;;;8.18;6.57;;;32.00;50.00;;;;;;5032531;28;20422;-72
2021/05/27 08:58:30;;;;;;;10.32;6.45;;;32.10;49.20;;;;;;5033260;28;20029;-72
2021/05/27 09:00:56;;;;;;;9.52;6.53;;;32.10;49.00;;;;;;5033050;28;20033;-72
2021/05/27 09:03:23;;;;;;;7.70;6.15;;;32.10;48.90;;;;;;5033089;28;20028;-72
2021/05/27 09:05:59;;;;;;;19.67;6.57;;;32.00;48.90;;;;;;5032374;28;20092;-73
2021/05/27 09:08:27;;;;;;;10.60;5.95;;;32.10;48.60;;;;;;5032866;28;20028;-72
2021/05/27 09:10:55;;;;;;;8.50;5.93;;;32.20;48.60;;;;;;5032945;28;20116;-72
2021/05/27 09:13:22;;;;;;;8.77;5.63;;;32.40;48.50;;;;;;5033208;28;20033;-72
2021/05/27 09:19:15;;;;;;;32.42;6.82;;;33.00;47.90;;;;;;5070546;28;20163;-72
2021/05/27 09:21:42;;;;;;;9.68;5.03;;;33.20;47.60;;;;;;5052626;28;20029;-72
2021/05/27 09:24:08;;;;;;;8.85;5.13;;;33.00;47.40;;;;;;5052254;28;20030;-72
2021/05/27 09:26:52;;;;;;;27.42;6.32;;;32.80;47.30;;;;;;5052487;28;20398;-72
2021/05/27 09:29:18;;;;;;;;;;;32.70;47.00;;;;;;5052914;28;20471;-73
2021/05/27 09:31:58;;;;;;;6.93;4.13;;;33.10;47.90;;;;;;5052635;28;19966;-73
2021/05/27 09:34:48;;;;;;;12.27;4.60;;;33.40;47.00;;;;;;5052734;28;20056;-72
2021/05/27 09:37:28;;;;;;;10.48;4.35;;;33.80;46.30;;;;;;5052563;28;20025;-72
2021/05/27 09:39:54;;;;;;;9.38;4.90;;;33.90;45.70;;;;;;5052331;28;20490;-72
2021/05/27 09:42:20;;;;;;;10.80;4.50;;;33.40;45.60;;;;;;5053295;28;20463;-72
2021/05/27 09:44:46;;;;;;;7.88;3.88;;;32.90;46.10;;;;;;5051847;28;20391;-73
2021/05/27 09:47:12;;;;;;;9.10;4.60;;;32.40;46.70;;;;;;5052375;28;20111;-73
2021/05/27 09:49:57;;;;;;;7.07;4.60;;;32.00;47.30;;;;;;5051302;28;20037;-85
2021/05/27 09:52:24;;;;;;;21.23;5.35;;;31.60;47.80;;;;;;5052452;28;20033;-73
2021/05/27 09:54:57;;;;;;;5.80;4.47;;;31.30;48.10;;;;;;5053579;28;20028;-72
2021/05/27 09:57:27;;;;;;;32.13;6.05;;;31.00;48.40;;;;;;5055838;28;20021;-73
2021/05/27 09:59:53;;;;;;;17.08;4.70;;;30.80;48.50;;;;;;5056034;28;20037;-73
2021/05/27 10:02:21;;;;;;;8.45;3.72;;;30.60;48.70;;;;;;5056134;28;20025;-72
2021/05/27 10:04:56;;;;;;;8.48;3.95;;;30.30;48.80;;;;;;5054121;28;20032;-72
2021/05/27 10:07:35;;;;;;;15.20;4.45;;;30.10;49.00;;;;;;5055773;28;20533;-73
2021/05/27 10:10:01;;;;;;;6.88;3.70;;;30.10;49.30;;;;;;5055367;28;20484;-72
2021/05/27 10:12:28;;;;;;;14.57;3.97;;;30.90;49.30;;;;;;5055346;28;20053;-73
2021/05/27 10:14:56;;;;;;;12.07;4.13;;;32.20;48.40;;;;;;5055895;28;20025;-72
2021/05/27 10:17:22;;;;;;;8.95;4.30;;;33.50;46.60;;;;;;5055928;28;20025;-73
2021/05/27 10:19:49;;;;;;;5.47;4.03;;;34.00;45.10;;;;;;5055210;28;20430;-71
2021/05/27 10:22:15;;;;;;;12.23;4.30;;;33.80;44.40;;;;;;5054350;28;20467;-72
2021/05/27 10:24:41;;;;;;;10.65;4.15;;;33.50;44.40;;;;;;5055514;28;20033;-72
2021/05/27 10:27:07;;;;;;;15.13;4.38;;;33.30;44.50;;;;;;5055375;28;20079;-73
2021/05/27 10:29:33;;;;;;;24.48;5.28;;;33.20;44.50;;;;;;5055637;28;20082;-72
2021/05/27 10:32:01;;;;;;;8.82;3.55;;;33.60;44.70;;;;;;5055404;28;20048;-72
2021/05/27 10:34:49;;;;;;;16.55;4.85;;;34.50;44.00;;;;;;5055264;28;20043;-73
2021/05/27 10:37:38;;;;;;;8.48;3.58;;;35.10;43.00;;;;;;5055150;28;20486;-72
2021/05/27 10:40:30;;;;;;;4.30;3.88;;;35.20;42.80;;;;;;5054913;28;20025;-73
2021/05/27 10:43:04;;;;;;;40.50;5.97;;;35.20;42.70;;;;;;5076165;28;20386;-70
2021/05/27 10:45:33;;;;;;;12.23;3.80;;;35.30;43.00;;;;;;5092855;28;20115;-69
2021/05/27 10:48:14;;;;;;;8.77;3.63;;;36.30;42.50;;;;;;5075068;28;20037;-70
2021/05/27 10:50:54;;;;;;;9.90;4.03;;;37.50;41.20;;;;;;5074474;28;20020;-70
2021/05/27 10:53:38;;;;;;;9.07;4.03;;;38.20;40.00;;;;;;5074966;28;20025;-70
2021/05/27 10:56:12;;;;;;;9.43;3.80;;;38.80;39.40;;;;;;5074520;28;20032;-70
2021/05/27 10:58:51;;;;;;;5.45;3.25;;;39.50;38.70;;;;;;5074986;28;20165;-68
2021/05/27 11:01:30;;;;;;;8.10;3.22;;;40.20;38.00;;;;;;5074666;28;20104;-71
2021/05/27 11:04:00;;;;;;;6.90;3.10;;;40.80;37.60;;;;;;5074470;28;20052;-73
2021/05/27 11:06:45;;;;;;;16.90;4.15;;;40.90;37.20;;;;;;5074266;28;20036;-74
2021/05/27 11:09:16;;;;;;;5.85;2.97;;;40.70;36.80;;;;;;5074713;28;20024;-72
2021/05/27 11:11:50;;;;;;;10.35;3.83;;;40.70;36.60;;;;;;5074038;28;20450;-89
2021/05/27 11:14:41;;;;;;;10.10;3.50;;;40.50;36.50;;;;;;5090215;28;20024;-71
2021/05/27 11:17:19;;;;;;;5.43;3.38;;;39.70;36.50;;;;;;5074822;28;20035;-71
2021/05/27 11:22:52;;;;;;;11.90;3.63;;;37.00;38.30;;;;;;5073246;28;20063;-71
2021/05/27 11:25:24;;;;;;;7.82;3.70;;;35.70;39.40;;;;;;5074201;28;20024;-71
2021/05/27 11:27:54;;;;;;;14.52;4.63;;;34.80;40.60;;;;;;5073841;28;20028;-72
2021/05/27 11:30:22;;;;;;;4.75;3.83;;;33.90;41.70;;;;;;5074257;28;20029;-71
2021/05/27 11:32:52;;;;;;;23.45;5.30;;;33.10;42.50;;;;;;5074004;28;20036;-71
2021/05/27 11:35:19;;;;;;;7.20;3.80;;;32.50;43.30;;;;;;5073248;28;20032;-71
2021/05/27 11:37:46;;;;;;;10.35;3.88;;;32.10;44.10;;;;;;5073872;28;20471;-71
2021/05/27 11:40:14;;;;;;;4.40;3.38;;;31.70;44.50;;;;;;5073622;28;20074;-71
2021/05/27 11:42:40;;;;;;;5.13;3.40;;;31.30;45.20;;;;;;5073806;28;20032;-71
2021/05/27 11:45:08;;;;;;;7.80;3.75;;;30.90;46.10;;;;;;5073785;28;20028;-70
2021/05/27 11:47:34;;;;;;;6.63;3.45;;;30.60;46.90;;;;;;5074006;28;20028;-71
2021/05/27 11:50:01;;;;;;;5.30;4.13;;;30.30;47.80;;;;;;5064242;28;20036;-72
2021/05/27 11:52:27;;;;;;;6.50;4.28;;;30.10;48.80;;;;;;5056901;28;20044;-78
2021/05/27 11:54:53;;;;;;;11.13;4.10;;;29.80;49.40;;;;;;5063122;28;20036;-72
2021/05/27 11:57:20;;;;;;;6.05;4.30;;;29.60;49.60;;;;;;5068653;28;20056;-71
2021/05/27 11:59:59;;;;;;;5.50;4.93;;;29.40;50.10;;;;;;5072578;28;20038;-72
2021/05/27 12:02:41;;;;;;;8.52;5.00;;;29.20;50.90;;;;;;5064159;28;20027;-71
2021/05/27 12:05:27;;;;;;;9.23;5.15;;;28.90;51.20;;;;;;5053539;28;20028;-71
2021/05/27 12:08:03;;;;;;;8.32;5.63;;;28.60;51.90;;;;;;5055273;28;20105;-71
2021/05/27 12:10:34;;;;;;;7.20;6.25;;;28.40;52.90;;;;;;5070529;28;20032;-71
2021/05/27 12:13:00;;;;;;;9.45;7.80;;;28.10;53.60;;;;;;5073541;28;20098;-71
2021/05/27 12:15:27;;;;;;;11.05;8.85;;;27.70;55.00;;;;;;5066297;28;20032;-74
2021/05/27 12:17:57;;;;;;;12.57;9.25;;;27.30;56.70;;;;;;5060552;28;20455;-76
2021/05/27 12:20:35;;;;;;;11.50;8.70;;;27.00;59.40;;;;;;5073738;28;20142;-76
2021/05/27 12:23:12;;;;;;;10.00;8.75;;;26.70;60.40;;;;;;5060486;28;20033;-76
2021/05/27 12:25:43;;;;;;;9.77;8.77;;;26.50;61.30;;;;;;5061003;28;20032;-76
2021/05/27 12:28:11;;;;;;;11.05;9.68;;;26.60;61.60;;;;;;5063090;28;20024;-76
2021/05/27 12:30:40;;;;;;;11.60;8.88;;;26.80;62.10;;;;;;5058396;28;20024;-76
2021/05/27 12:33:09;;;;;;;10.23;9.10;;;27.30;62.20;;;;;;5062664;28;20036;-76
2021/05/27 12:35:38;;;;;;;12.82;9.63;;;27.80;61.40;;;;;;5060280;28;20029;-76
2021/05/27 12:38:06;;;;;;;19.65;9.95;;;28.00;60.80;;;;;;5059027;28;20028;-76
2021/05/27 12:40:42;;;;;;;13.88;8.55;;;28.00;60.70;;;;;;5061468;28;20404;-76
2021/05/27 12:43:25;;;;;;;9.13;7.63;;;28.00;59.90;;;;;;5059242;28;20418;-76
2021/05/27 12:45:53;;;;;;;11.95;7.50;;;27.90;59.60;;;;;;5058644;28;20379;-78
2021/05/27 12:48:20;;;;;;;9.52;7.40;;;27.90;59.70;;;;;;5061468;28;20028;-77
2021/05/27 12:51:01;;;;;;;7.97;6.90;;;27.90;59.50;;;;;;5063071;28;20025;-77
2021/05/27 12:53:39;;;;;;;8.43;7.00;;;27.70;59.70;;;;;;5062978;28;20040;-76
2021/05/27 12:56:24;;;;;;;8.55;7.35;;;27.60;59.70;;;;;;5062372;28;20109;-76
2021/05/27 12:58:55;;;;;;;7.80;7.05;;;27.40;59.90;;;;;;5061046;28;20043;-76
2021/05/27 13:01:32;;;;;;;7.00;6.40;;;27.20;60.10;;;;;;5061048;28;20111;-75
2021/05/27 13:03:59;;;;;;;9.40;6.60;;;27.10;60.30;;;;;;5061578;28;20021;-76
2021/05/27 13:06:33;;;;;;;9.10;8.05;;;27.00;59.80;;;;;;5062791;28;20089;-76
2021/05/27 13:09:02;;;;;;;9.30;7.75;;;26.90;60.00;;;;;;5062503;28;20021;-77
2021/05/27 13:11:32;;;;;;;8.52;7.45;;;26.60;60.80;;;;;;5059405;28;20060;-76